createdAt,value
2022-11-07T00:00:20.277Z,11.57
2022-11-07T00:01:20.434Z,11.57
2022-11-07T00:02:20.301Z,11.59
2022-11-07T00:03:20.299Z,11.59
2022-11-07T00:04:20.235Z,11.60
2022-11-07T00:05:20.226Z,11.63
2022-11-07T00:06:20.211Z,11.62
2022-11-07T00:07:20.213Z,11.63
2022-11-07T00:08:20.188Z,11.63
2022-11-07T00:09:20.181Z,11.60
2022-11-07T00:10:20.166Z,11.57
2022-11-07T00:11:20.158Z,11.54
2022-11-07T00:12:20.154Z,11.53
2022-11-07T00:13:20.135Z,11.54
2022-11-07T00:14:20.132Z,11.57
2022-11-07T00:15:20.114Z,11.59
2022-11-07T00:16:20.122Z,11.60
2022-11-07T00:17:20.090Z,11.60
2022-11-07T00:18:20.081Z,11.60
2022-11-07T00:19:20.070Z,11.63
2022-11-07T00:20:20.059Z,11.62
2022-11-07T00:21:20.045Z,11.62
2022-11-07T00:22:20.051Z,11.62
2022-11-07T00:23:20.026Z,11.63
2022-11-07T00:24:20.014Z,11.62
2022-11-07T00:25:20.003Z,11.62
2022-11-07T00:26:19.992Z,11.62
2022-11-07T00:27:20.026Z,11.62
2022-11-07T00:28:19.970Z,11.60
2022-11-07T00:29:19.963Z,11.63
2022-11-07T00:30:19.950Z,11.63
2022-11-07T00:31:19.934Z,11.63
2022-11-07T00:32:19.943Z,11.63
2022-11-07T00:33:19.913Z,11.62
2022-11-07T00:34:19.903Z,11.64
2022-11-07T00:35:19.901Z,11.64
2022-11-07T00:36:19.882Z,11.64
2022-11-07T00:37:19.879Z,11.64
2022-11-07T00:38:19.859Z,11.64
2022-11-07T00:39:19.853Z,11.63
2022-11-07T00:40:19.840Z,11.62
2022-11-07T00:41:19.822Z,11.62
2022-11-07T00:42:19.825Z,11.63
2022-11-07T00:43:19.806Z,11.64
2022-11-07T00:44:19.796Z,11.66
2022-11-07T00:45:19.777Z,11.64
2022-11-07T00:46:19.779Z,11.66
2022-11-07T00:47:19.772Z,11.70
2022-11-07T00:48:19.750Z,11.69
2022-11-07T00:49:19.734Z,11.67
2022-11-07T00:50:19.727Z,11.67
2022-11-07T00:51:19.713Z,11.67
2022-11-07T00:52:19.716Z,11.66
2022-11-07T00:53:19.702Z,11.66
2022-11-07T00:54:19.684Z,11.72
2022-11-07T00:55:19.669Z,11.74
2022-11-07T00:56:19.663Z,11.75
2022-11-07T00:57:19.657Z,11.75
2022-11-07T00:58:19.642Z,11.75
2022-11-07T00:59:19.626Z,11.74
2022-11-07T01:00:19.618Z,11.74
2022-11-07T01:01:19.652Z,11.74
2022-11-07T01:02:19.706Z,11.74
2022-11-07T01:03:19.580Z,11.75
2022-11-07T01:04:19.578Z,11.74
2022-11-07T01:05:19.557Z,11.74
2022-11-07T01:06:19.555Z,11.74
2022-11-07T01:07:19.545Z,11.70
2022-11-07T01:08:19.531Z,11.69
2022-11-07T01:09:19.515Z,11.67
2022-11-07T01:10:19.538Z,11.70
2022-11-07T01:11:19.491Z,11.72
2022-11-07T01:12:19.497Z,11.74
2022-11-07T01:13:19.471Z,11.75
2022-11-07T01:14:19.462Z,11.74
2022-11-07T01:15:19.452Z,11.74
2022-11-07T01:16:19.441Z,11.74
2022-11-07T01:17:19.434Z,11.77
2022-11-07T01:18:19.431Z,11.77
2022-11-07T01:19:19.404Z,11.78
2022-11-07T01:20:19.398Z,11.78
2022-11-07T01:21:19.381Z,11.81
2022-11-07T01:22:19.382Z,11.81
2022-11-07T01:23:19.362Z,11.78
2022-11-07T01:24:19.351Z,11.82
2022-11-07T01:25:19.337Z,11.82
2022-11-07T01:26:19.333Z,11.79
2022-11-07T01:27:19.327Z,11.81
2022-11-07T01:28:19.308Z,11.81
2022-11-07T01:29:19.295Z,11.79
2022-11-07T01:30:19.289Z,11.78
2022-11-07T01:31:19.281Z,11.75
2022-11-07T01:32:19.264Z,11.75
2022-11-07T01:33:19.260Z,11.81
2022-11-07T01:34:19.244Z,11.84
2022-11-07T01:35:19.228Z,11.84
2022-11-07T01:36:19.218Z,11.87
2022-11-07T01:37:19.205Z,11.85
2022-11-07T01:38:19.211Z,11.84
2022-11-07T01:39:19.183Z,11.85
2022-11-07T01:40:19.176Z,11.87
2022-11-07T01:41:19.161Z,11.87
2022-11-07T01:42:19.153Z,11.88
2022-11-07T01:43:19.149Z,11.93
2022-11-07T01:44:19.133Z,11.97
2022-11-07T01:45:19.165Z,11.96
2022-11-07T01:46:19.104Z,11.94
2022-11-07T01:47:19.099Z,11.90
2022-11-07T01:48:19.095Z,11.93
2022-11-07T01:49:19.075Z,11.93
2022-11-07T01:50:19.060Z,11.90
2022-11-07T01:51:19.054Z,11.87
2022-11-07T01:52:19.038Z,11.88
2022-11-07T01:53:19.046Z,11.88
2022-11-07T01:54:19.018Z,11.88
2022-11-07T01:55:19.013Z,11.88
2022-11-07T01:56:18.994Z,11.87
2022-11-07T01:57:18.988Z,11.84
2022-11-07T01:58:18.982Z,11.85
2022-11-07T01:59:18.966Z,11.84
2022-11-07T02:00:18.954Z,11.87
2022-11-07T02:01:18.973Z,11.87
2022-11-07T02:02:19.079Z,11.93
2022-11-07T02:03:18.937Z,11.93
2022-11-07T02:04:18.906Z,11.88
2022-11-07T02:05:18.905Z,11.88
2022-11-07T02:06:18.884Z,11.88
2022-11-07T02:07:18.897Z,11.85
2022-11-07T02:08:18.876Z,11.81
2022-11-07T02:09:18.857Z,11.77
2022-11-07T02:10:18.842Z,11.70
2022-11-07T02:11:18.834Z,11.64
2022-11-07T02:12:18.822Z,11.63
2022-11-07T02:13:18.833Z,11.60
2022-11-07T02:14:18.800Z,11.59
2022-11-07T02:15:18.791Z,11.62
2022-11-07T02:16:18.774Z,11.62
2022-11-07T02:17:18.799Z,11.63
2022-11-07T02:18:18.769Z,11.66
2022-11-07T02:19:18.749Z,11.67
2022-11-07T02:20:18.732Z,11.67
2022-11-07T02:21:18.725Z,11.70
2022-11-07T02:22:18.706Z,11.77
2022-11-07T02:23:18.710Z,11.81
2022-11-07T02:24:18.687Z,11.81
2022-11-07T02:25:18.681Z,11.87
2022-11-07T02:26:18.664Z,11.90
2022-11-07T02:27:18.656Z,11.90
2022-11-07T02:28:18.656Z,11.88
2022-11-07T02:29:18.636Z,11.87
2022-11-07T02:30:18.625Z,11.87
2022-11-07T02:31:18.615Z,11.84
2022-11-07T02:32:18.597Z,11.85
2022-11-07T02:33:18.610Z,11.88
2022-11-07T02:34:18.579Z,11.87
2022-11-07T02:35:18.570Z,11.87
2022-11-07T02:36:18.556Z,11.93
2022-11-07T02:37:18.549Z,11.93
2022-11-07T02:38:18.551Z,11.93
2022-11-07T02:39:18.532Z,11.94
2022-11-07T02:40:18.512Z,11.90
2022-11-07T02:41:18.502Z,11.93
2022-11-07T02:42:18.489Z,11.93
2022-11-07T02:43:18.642Z,11.96
2022-11-07T02:44:18.502Z,11.94
2022-11-07T02:45:18.459Z,11.96
2022-11-07T02:46:18.446Z,11.98
2022-11-07T02:47:18.436Z,11.98
2022-11-07T02:48:18.426Z,11.98
2022-11-07T02:49:18.430Z,11.98
2022-11-07T02:50:18.401Z,11.96
2022-11-07T02:51:18.392Z,11.94
2022-11-07T02:52:18.378Z,11.90
2022-11-07T02:53:18.494Z,11.94
2022-11-07T02:54:18.366Z,11.94
2022-11-07T02:55:18.349Z,11.97
2022-11-07T02:56:18.336Z,11.98
2022-11-07T02:57:18.327Z,11.97
2022-11-07T02:58:18.311Z,11.97
2022-11-07T02:59:21.748Z,11.97
2022-11-07T03:00:18.296Z,11.96
2022-11-07T03:01:18.325Z,11.93
2022-11-07T03:02:18.385Z,11.88
2022-11-07T03:03:18.366Z,11.88
2022-11-07T03:04:18.260Z,11.85
2022-11-07T03:05:18.240Z,11.85
2022-11-07T03:06:18.223Z,11.82
2022-11-07T03:07:18.218Z,11.81
2022-11-07T03:08:18.202Z,11.82
2022-11-07T03:09:18.209Z,11.82
2022-11-07T03:10:18.180Z,11.81
2022-11-07T03:11:18.178Z,11.82
2022-11-07T03:12:18.170Z,11.84
2022-11-07T03:13:18.151Z,11.84
2022-11-07T03:14:18.181Z,11.82
2022-11-07T03:15:18.124Z,11.79
2022-11-07T03:16:18.119Z,11.79
2022-11-07T03:17:18.103Z,11.79
2022-11-07T03:18:18.101Z,11.77
2022-11-07T03:19:18.093Z,11.75
2022-11-07T03:20:18.078Z,11.78
2022-11-07T03:21:18.059Z,11.78
2022-11-07T03:22:18.052Z,11.78
2022-11-07T03:23:18.243Z,11.77
2022-11-07T03:24:18.108Z,11.77
2022-11-07T03:25:18.015Z,11.74
2022-11-07T03:26:18.010Z,11.74
2022-11-07T03:27:17.994Z,11.72
2022-11-07T03:28:17.987Z,11.74
2022-11-07T03:29:17.981Z,11.74
2022-11-07T03:30:17.963Z,11.75
2022-11-07T03:31:17.957Z,11.75
2022-11-07T03:32:17.948Z,11.74
2022-11-07T03:33:18.144Z,11.74
2022-11-07T03:34:17.933Z,11.72
2022-11-07T03:35:17.908Z,11.74
2022-11-07T03:36:17.904Z,11.75
2022-11-07T03:37:17.884Z,11.74
2022-11-07T03:38:17.876Z,11.75
2022-11-07T03:39:23.132Z,11.74
2022-11-07T03:40:17.861Z,11.74
2022-11-07T03:41:17.840Z,11.72
2022-11-07T03:42:17.835Z,11.69
2022-11-07T03:43:17.991Z,11.70
2022-11-07T03:44:17.820Z,11.70
2022-11-07T03:45:17.794Z,11.69
2022-11-07T03:46:17.790Z,11.69
2022-11-07T03:47:17.772Z,11.69
2022-11-07T03:48:17.767Z,11.69
2022-11-07T03:49:17.840Z,11.66
2022-11-07T03:50:17.745Z,11.67
2022-11-07T03:51:17.727Z,11.67
2022-11-07T03:52:17.720Z,11.67
2022-11-07T03:53:23.887Z,11.64
2022-11-07T03:54:17.881Z,11.62
2022-11-07T03:55:17.692Z,11.59
2022-11-07T03:56:17.681Z,11.60
2022-11-07T03:57:17.662Z,11.62
2022-11-07T03:58:17.654Z,11.66
2022-11-07T03:59:17.651Z,11.64
2022-11-07T04:00:17.692Z,11.63
2022-11-07T04:01:17.640Z,11.63
2022-11-07T04:02:17.791Z,11.66
2022-11-07T04:03:17.825Z,11.67
2022-11-07T04:04:17.597Z,11.72
2022-11-07T04:05:17.581Z,11.74
2022-11-07T04:06:17.570Z,11.78
2022-11-07T04:07:17.553Z,11.82
2022-11-07T04:08:17.549Z,11.87
2022-11-07T04:09:17.544Z,11.90
2022-11-07T04:10:17.547Z,11.87
2022-11-07T04:11:17.511Z,11.85
2022-11-07T04:12:17.501Z,11.85
2022-11-07T04:13:17.649Z,11.84
2022-11-07T04:14:17.483Z,11.87
2022-11-07T04:15:17.463Z,11.84
2022-11-07T04:16:17.936Z,11.81
2022-11-07T04:17:17.441Z,11.78
2022-11-07T04:18:17.435Z,11.79
2022-11-07T04:19:17.433Z,11.82
2022-11-07T04:20:17.413Z,11.84
2022-11-07T04:21:17.398Z,11.84
2022-11-07T04:22:17.390Z,11.82
2022-11-07T04:23:17.815Z,11.81
2022-11-07T04:24:17.379Z,11.79
2022-11-07T04:25:17.353Z,11.81
2022-11-07T04:26:17.349Z,11.79
2022-11-07T04:27:17.334Z,11.77
2022-11-07T04:28:17.336Z,11.70
2022-11-07T04:29:17.310Z,11.66
2022-11-07T04:30:17.306Z,11.63
2022-11-07T04:31:17.294Z,11.60
2022-11-07T04:32:17.282Z,11.59
2022-11-07T04:33:17.579Z,11.56
2022-11-07T04:34:17.260Z,11.54
2022-11-07T04:35:17.246Z,11.56
2022-11-07T04:36:17.239Z,11.54
2022-11-07T04:37:17.223Z,11.49
2022-11-07T04:38:17.227Z,11.46
2022-11-07T04:39:17.200Z,11.45
2022-11-07T04:40:17.203Z,11.42
2022-11-07T04:41:17.182Z,11.39
2022-11-07T04:42:17.173Z,11.38
2022-11-07T04:43:17.414Z,11.35
2022-11-07T04:44:17.150Z,11.33
2022-11-07T04:45:17.134Z,11.36
2022-11-07T04:46:17.128Z,11.38
2022-11-07T04:47:17.118Z,11.44
2022-11-07T04:48:17.107Z,11.46
2022-11-07T04:49:17.099Z,11.51
2022-11-07T04:50:17.084Z,11.48
2022-11-07T04:51:17.069Z,11.49
2022-11-07T04:52:17.063Z,11.53
2022-11-07T04:53:17.268Z,11.57
2022-11-07T04:54:17.040Z,11.60
2022-11-07T04:55:17.025Z,11.63
2022-11-07T04:56:17.018Z,11.63
2022-11-07T04:57:17.147Z,11.64
2022-11-07T04:58:17.007Z,11.66
2022-11-07T04:59:16.981Z,11.66
2022-11-07T05:00:16.975Z,11.66
2022-11-07T05:01:16.960Z,11.64
2022-11-07T05:02:17.076Z,11.64
2022-11-07T05:03:17.334Z,11.67
2022-11-07T05:04:16.931Z,11.66
2022-11-07T05:05:16.912Z,11.64
2022-11-07T05:06:16.909Z,11.64
2022-11-07T05:07:16.890Z,11.67
2022-11-07T05:08:16.898Z,11.69
2022-11-07T05:09:16.869Z,11.69
2022-11-07T05:10:16.862Z,11.67
2022-11-07T05:11:16.848Z,11.69
2022-11-07T05:12:16.843Z,11.66
2022-11-07T05:13:17.231Z,11.63
2022-11-07T05:14:16.820Z,11.63
2022-11-07T05:15:16.807Z,11.59
2022-11-07T05:16:16.796Z,11.56
2022-11-07T05:17:16.784Z,11.54
2022-11-07T05:18:16.790Z,11.53
2022-11-07T05:19:16.759Z,11.48
2022-11-07T05:20:16.752Z,11.48
2022-11-07T05:21:16.737Z,11.46
2022-11-07T05:22:16.742Z,11.44
2022-11-07T05:23:16.934Z,11.44
2022-11-07T05:24:16.707Z,11.39
2022-11-07T05:25:16.696Z,11.35
2022-11-07T05:26:16.686Z,11.36
2022-11-07T05:27:16.671Z,11.35
2022-11-07T05:28:16.678Z,11.30
2022-11-07T05:29:16.648Z,11.27
2022-11-07T05:30:16.643Z,11.26
2022-11-07T05:31:16.627Z,11.27
2022-11-07T05:32:16.624Z,11.27
2022-11-07T05:33:17.181Z,11.27
2022-11-07T05:34:16.613Z,11.28
2022-11-07T05:35:16.582Z,11.28
2022-11-07T05:36:16.575Z,11.30
2022-11-07T05:37:16.562Z,11.36
2022-11-07T05:38:16.564Z,11.44
2022-11-07T05:39:16.538Z,11.45
2022-11-07T05:40:16.531Z,11.45
2022-11-07T05:41:16.517Z,11.45
2022-11-07T05:42:16.510Z,11.45
2022-11-07T05:43:17.043Z,11.46
2022-11-07T05:44:16.486Z,11.45
2022-11-07T05:45:16.471Z,11.45
2022-11-07T05:46:16.464Z,11.44
2022-11-07T05:47:16.450Z,11.45
2022-11-07T05:48:16.443Z,11.48
2022-11-07T05:49:16.438Z,11.51
2022-11-07T05:50:16.420Z,11.56
2022-11-07T05:51:16.405Z,11.53
2022-11-07T05:52:16.400Z,11.51
2022-11-07T05:53:16.835Z,11.51
2022-11-07T05:54:16.379Z,11.48
2022-11-07T05:55:16.360Z,11.48
2022-11-07T05:56:16.363Z,11.48
2022-11-07T05:57:16.342Z,11.46
2022-11-07T05:58:16.336Z,11.44
2022-11-07T05:59:16.334Z,11.44
2022-11-07T06:00:16.310Z,11.42
2022-11-07T06:01:16.301Z,11.38
2022-11-07T06:02:16.473Z,11.35
2022-11-07T06:03:16.763Z,11.33
2022-11-07T06:04:16.274Z,11.28
2022-11-07T06:05:19.352Z,11.28
2022-11-07T06:06:16.244Z,11.28
2022-11-07T06:07:16.232Z,11.28
2022-11-07T06:08:16.223Z,11.28
2022-11-07T06:09:16.224Z,11.27
2022-11-07T06:10:16.195Z,11.26
2022-11-07T06:11:16.196Z,11.27
2022-11-07T06:12:16.176Z,11.28
2022-11-07T06:13:16.627Z,11.27
2022-11-07T06:14:16.164Z,11.26
2022-11-07T06:15:16.143Z,11.27
2022-11-07T06:16:16.231Z,11.26
2022-11-07T06:17:16.154Z,11.23
2022-11-07T06:18:16.127Z,11.23
2022-11-07T06:19:16.109Z,11.20
2022-11-07T06:20:16.090Z,11.19
2022-11-07T06:21:16.075Z,11.17
2022-11-07T06:22:16.215Z,11.16
2022-11-07T06:23:16.579Z,11.12
2022-11-07T06:24:16.056Z,11.11
2022-11-07T06:25:16.038Z,11.08
2022-11-07T06:26:16.031Z,11.08
2022-11-07T06:27:16.011Z,11.03
2022-11-07T06:28:16.004Z,11.02
2022-11-07T06:29:16.000Z,11.01
2022-11-07T06:30:15.979Z,11.01
2022-11-07T06:31:15.965Z,10.99
2022-11-07T06:32:15.958Z,11.02
2022-11-07T06:33:16.508Z,11.05
2022-11-07T06:34:15.945Z,11.08
2022-11-07T06:35:15.922Z,11.09
2022-11-07T06:36:15.916Z,11.09
2022-11-07T06:37:15.898Z,11.09
2022-11-07T06:38:15.891Z,11.11
2022-11-07T06:39:15.888Z,11.11
2022-11-07T06:40:15.874Z,11.11
2022-11-07T06:41:15.855Z,11.08
2022-11-07T06:42:15.863Z,11.05
2022-11-07T06:43:16.255Z,11.05
2022-11-07T06:44:15.837Z,11.02
2022-11-07T06:45:15.810Z,11.03
2022-11-07T06:46:15.804Z,11.05
2022-11-07T06:47:15.789Z,11.06
2022-11-07T06:48:15.789Z,11.09
2022-11-07T06:49:15.777Z,11.08
2022-11-07T06:50:15.761Z,11.05
2022-11-07T06:51:15.747Z,11.05
2022-11-07T06:52:15.740Z,11.05
2022-11-07T06:53:16.256Z,11.06
2022-11-07T06:54:15.728Z,11.02
2022-11-07T06:55:15.701Z,10.98
2022-11-07T06:56:15.694Z,10.95
2022-11-07T06:57:15.680Z,10.93
2022-11-07T06:58:15.674Z,10.90
2022-11-07T06:59:15.672Z,10.88
2022-11-07T07:00:15.657Z,10.84
2022-11-07T07:01:15.772Z,10.81
2022-11-07T07:02:30.857Z,10.78
2022-11-07T07:03:15.855Z,10.76
2022-11-07T07:04:15.614Z,10.75
2022-11-07T07:05:20.782Z,10.73
2022-11-07T07:06:15.591Z,10.75
2022-11-07T07:07:15.569Z,10.75
2022-11-07T07:08:15.561Z,10.75
2022-11-07T07:09:15.555Z,10.78
2022-11-07T07:10:15.545Z,10.78
2022-11-07T07:11:15.524Z,10.84
2022-11-07T07:12:15.517Z,10.86
2022-11-07T07:13:15.850Z,10.88
2022-11-07T07:14:15.511Z,10.93
2022-11-07T07:15:15.483Z,10.94
2022-11-07T07:16:15.475Z,10.98
2022-11-07T07:17:15.467Z,11.01
2022-11-07T07:18:15.452Z,11.03
2022-11-07T07:19:15.447Z,11.06
2022-11-07T07:20:15.432Z,11.08
2022-11-07T07:21:15.413Z,11.11
2022-11-07T07:22:15.412Z,11.12
2022-11-07T07:23:15.392Z,11.13
2022-11-07T07:24:15.398Z,11.17
2022-11-07T07:25:15.373Z,11.19
2022-11-07T07:26:15.361Z,11.20
2022-11-07T07:27:15.361Z,11.23
2022-11-07T07:28:15.340Z,11.26
2022-11-07T07:29:15.335Z,11.27
2022-11-07T07:30:15.319Z,11.28
2022-11-07T07:31:15.310Z,11.30
2022-11-07T07:32:15.297Z,11.31
2022-11-07T07:33:15.508Z,11.33
2022-11-07T07:34:15.288Z,11.36
2022-11-07T07:35:15.263Z,11.36
2022-11-07T07:36:20.184Z,11.39
2022-11-07T07:37:15.245Z,11.38
2022-11-07T07:38:15.229Z,11.41
2022-11-07T07:39:15.224Z,11.42
2022-11-07T07:40:15.206Z,11.41
2022-11-07T07:41:15.194Z,11.39
2022-11-07T07:42:15.185Z,11.38
2022-11-07T07:43:15.609Z,11.38
2022-11-07T07:44:15.172Z,11.36
2022-11-07T07:45:15.150Z,11.36
2022-11-07T07:46:15.141Z,11.36
2022-11-07T07:47:15.128Z,11.39
2022-11-07T07:48:15.120Z,11.38
2022-11-07T07:49:15.111Z,11.38
2022-11-07T07:50:15.095Z,11.36
2022-11-07T07:51:15.083Z,11.36
2022-11-07T07:52:15.075Z,11.36
2022-11-07T07:53:15.280Z,11.36
2022-11-07T07:54:15.061Z,11.38
2022-11-07T07:55:15.040Z,11.38
2022-11-07T07:56:15.032Z,11.41
2022-11-07T07:57:15.014Z,11.42
2022-11-07T07:58:15.008Z,11.42
2022-11-07T07:59:15.004Z,11.44
2022-11-07T08:00:14.989Z,11.48
2022-11-07T08:01:15.057Z,11.49
2022-11-07T08:02:15.034Z,11.51
2022-11-07T08:03:15.290Z,11.51
2022-11-07T08:04:14.951Z,11.54
2022-11-07T08:05:14.928Z,11.56
2022-11-07T08:06:14.924Z,11.59
2022-11-07T08:07:14.906Z,11.63
2022-11-07T08:08:14.899Z,11.64
2022-11-07T08:09:14.895Z,11.69
2022-11-07T08:10:40.125Z,11.72
2022-11-07T08:11:14.868Z,11.75
2022-11-07T08:12:14.860Z,11.79
2022-11-07T08:13:15.191Z,11.82
2022-11-07T08:14:14.833Z,11.87
2022-11-07T08:15:14.829Z,11.94
2022-11-07T08:16:14.816Z,11.98
2022-11-07T08:17:14.794Z,12.03
2022-11-07T08:18:14.789Z,12.05
2022-11-07T08:19:14.774Z,12.07
2022-11-07T08:20:14.777Z,12.12
2022-11-07T08:21:14.752Z,12.13
2022-11-07T08:22:14.746Z,12.16
2022-11-07T08:23:16.682Z,12.18
2022-11-07T08:24:14.725Z,12.21
2022-11-07T08:25:14.721Z,12.23
2022-11-07T08:26:14.703Z,12.23
2022-11-07T08:27:14.687Z,12.26
2022-11-07T08:28:14.687Z,12.30
2022-11-07T08:29:14.666Z,12.34
2022-11-07T08:30:17.906Z,12.37
2022-11-07T08:31:14.641Z,12.41
2022-11-07T08:32:14.638Z,12.46
2022-11-07T08:33:14.925Z,12.51
2022-11-07T08:34:14.741Z,12.54
2022-11-07T08:35:14.608Z,12.56
2022-11-07T08:36:14.590Z,12.56
2022-11-07T08:37:14.575Z,12.59
2022-11-07T08:38:14.569Z,12.59
2022-11-07T08:39:14.552Z,12.62
2022-11-07T08:40:14.554Z,12.67
2022-11-07T08:41:18.363Z,12.70
2022-11-07T08:42:14.530Z,12.70
2022-11-07T08:43:14.869Z,12.71
2022-11-07T08:44:14.501Z,12.79
2022-11-07T08:45:14.495Z,12.85
2022-11-07T08:46:14.487Z,12.88
2022-11-07T08:47:14.464Z,12.88
2022-11-07T08:48:14.459Z,12.85
2022-11-07T08:49:14.443Z,12.88
2022-11-07T08:50:14.456Z,12.89
2022-11-07T08:51:14.425Z,12.91
2022-11-07T08:52:14.413Z,12.94
2022-11-07T08:53:14.398Z,12.99
2022-11-07T08:54:14.400Z,13.03
2022-11-07T08:55:14.383Z,13.04
2022-11-07T08:56:14.387Z,13.06
2022-11-07T08:57:14.355Z,13.07
2022-11-07T08:58:14.347Z,13.10
2022-11-07T08:59:14.330Z,13.13
2022-11-07T09:00:14.335Z,13.17
2022-11-07T09:01:14.336Z,13.24
2022-11-07T09:02:57.433Z,13.27
2022-11-07T09:04:14.439Z,13.31
2022-11-07T09:05:14.298Z,13.32
2022-11-07T09:06:14.257Z,13.36
2022-11-07T09:07:14.241Z,13.41
2022-11-07T09:08:14.252Z,13.43
2022-11-07T09:09:16.847Z,13.44
2022-11-07T09:10:14.224Z,13.46
2022-11-07T09:11:14.198Z,13.48
2022-11-07T09:12:14.193Z,13.51
2022-11-07T09:13:14.683Z,13.54
2022-11-07T09:14:14.203Z,13.55
2022-11-07T09:15:14.165Z,13.55
2022-11-07T09:16:14.141Z,13.59
2022-11-07T09:17:14.137Z,13.61
2022-11-07T09:18:14.118Z,13.63
2022-11-07T09:19:14.115Z,13.65
2022-11-07T09:20:14.104Z,13.65
2022-11-07T09:21:19.077Z,13.65
2022-11-07T09:22:14.079Z,13.66
2022-11-07T09:23:14.420Z,13.66
2022-11-07T09:24:14.051Z,13.68
2022-11-07T09:25:14.056Z,13.68
2022-11-07T09:26:14.028Z,13.66
2022-11-07T09:27:14.023Z,13.66
2022-11-07T09:28:14.020Z,13.66
2022-11-07T09:29:14.002Z,13.66
2022-11-07T09:30:13.995Z,13.68
2022-11-07T09:31:13.981Z,13.68
2022-11-07T09:32:38.707Z,13.69
2022-11-07T09:33:14.402Z,13.72
2022-11-07T09:34:13.943Z,13.75
2022-11-07T09:35:13.945Z,13.76
2022-11-07T09:36:13.919Z,13.76
2022-11-07T09:37:13.922Z,13.79
2022-11-07T09:38:13.907Z,13.76
2022-11-07T09:39:13.895Z,13.79
2022-11-07T09:40:13.886Z,13.81
2022-11-07T09:41:13.881Z,13.83
2022-11-07T09:42:13.853Z,13.83
2022-11-07T09:43:14.254Z,13.87
2022-11-07T09:44:13.830Z,13.88
2022-11-07T09:45:13.833Z,13.90
2022-11-07T09:46:13.811Z,13.90
2022-11-07T09:47:13.805Z,13.87
2022-11-07T09:48:13.788Z,13.90
2022-11-07T09:49:13.780Z,13.90
2022-11-07T09:50:13.775Z,13.93
2022-11-07T09:51:13.764Z,13.96
2022-11-07T09:52:13.742Z,13.96
2022-11-07T09:53:14.134Z,13.98
2022-11-07T09:54:13.721Z,13.99
2022-11-07T09:55:13.728Z,14.02
2022-11-07T09:56:13.699Z,14.02
2022-11-07T09:57:14.393Z,14.02
2022-11-07T09:58:13.681Z,14.04
2022-11-07T09:59:14.472Z,14.05
2022-11-07T10:00:13.665Z,14.05
2022-11-07T10:01:13.686Z,14.06
2022-11-07T10:02:13.708Z,14.09
2022-11-07T10:03:14.084Z,14.09
2022-11-07T10:04:29.058Z,14.13
2022-11-07T10:05:13.623Z,14.17
2022-11-07T10:06:13.592Z,14.17
2022-11-07T10:07:13.584Z,14.21
2022-11-07T10:08:13.567Z,14.23
2022-11-07T10:09:13.563Z,14.30
2022-11-07T10:10:13.560Z,14.38
2022-11-07T10:11:13.538Z,14.45
2022-11-07T10:12:13.525Z,14.48
2022-11-07T10:13:13.971Z,14.52
2022-11-07T10:14:13.529Z,14.54
2022-11-07T10:15:13.500Z,14.60
2022-11-07T10:16:13.485Z,14.61
2022-11-07T10:17:13.476Z,14.61
2022-11-07T10:18:13.464Z,14.57
2022-11-07T10:19:13.453Z,14.61
2022-11-07T10:20:13.450Z,14.61
2022-11-07T10:22:13.421Z,14.69
2022-11-07T10:23:13.765Z,14.72
2022-11-07T10:24:13.404Z,14.78
2022-11-07T10:25:13.391Z,14.80
2022-11-07T10:26:13.370Z,14.85
2022-11-07T10:27:13.354Z,14.85
2022-11-07T10:28:13.347Z,14.83
2022-11-07T10:29:13.335Z,14.83
2022-11-07T10:30:13.333Z,14.83
2022-11-07T10:31:13.310Z,14.82
2022-11-07T10:32:13.304Z,14.78
2022-11-07T10:33:13.544Z,14.79
2022-11-07T10:34:13.287Z,14.82
2022-11-07T10:35:13.280Z,14.86
2022-11-07T10:36:13.258Z,14.91
2022-11-07T10:37:13.242Z,14.98
2022-11-07T10:38:13.239Z,15.01
2022-11-07T10:39:13.221Z,15.01
2022-11-07T10:40:13.228Z,15.03
2022-11-07T10:41:13.198Z,14.95
2022-11-07T10:42:13.190Z,14.90
2022-11-07T10:43:13.452Z,14.86
2022-11-07T10:44:13.229Z,14.85
2022-11-07T10:45:13.165Z,14.86
2022-11-07T10:46:13.144Z,14.83
2022-11-07T10:47:13.131Z,14.80
2022-11-07T10:48:13.329Z,14.80
2022-11-07T10:49:13.108Z,14.83
2022-11-07T10:50:13.138Z,14.82
2022-11-07T10:51:13.085Z,14.85
2022-11-07T10:52:13.078Z,14.91
2022-11-07T10:53:13.062Z,14.95
2022-11-07T10:54:13.736Z,14.98
2022-11-07T10:55:13.050Z,15.03
2022-11-07T10:56:13.034Z,15.03
2022-11-07T10:57:13.121Z,15.03
2022-11-07T10:58:13.232Z,15.03
2022-11-07T10:59:12.998Z,15.01
2022-11-07T11:00:13.000Z,15.01
2022-11-07T11:01:13.071Z,14.98
2022-11-07T11:02:13.055Z,14.94
2022-11-07T11:03:12.954Z,14.91
2022-11-07T11:04:12.946Z,14.93
2022-11-07T11:05:12.952Z,14.94
2022-11-07T11:06:12.923Z,14.98
2022-11-07T11:07:12.907Z,15.00
2022-11-07T11:08:13.358Z,14.97
2022-11-07T11:09:12.885Z,14.93
2022-11-07T11:10:12.883Z,14.87
2022-11-07T11:11:12.861Z,14.83
2022-11-07T11:12:12.857Z,14.75
2022-11-07T11:13:12.840Z,14.71
2022-11-07T11:14:12.862Z,14.64
2022-11-07T11:15:12.828Z,14.60
2022-11-07T11:16:12.809Z,14.60
2022-11-07T11:17:12.846Z,14.59
2022-11-07T11:18:13.013Z,14.59
2022-11-07T11:19:12.771Z,14.57
2022-11-07T11:20:13.154Z,14.56
2022-11-07T11:21:12.754Z,14.53
2022-11-07T11:22:12.742Z,14.49
2022-11-07T11:23:12.979Z,14.49
2022-11-07T11:24:12.731Z,14.48
2022-11-07T11:25:12.720Z,14.49
2022-11-07T11:26:12.740Z,14.52
2022-11-07T11:27:12.682Z,14.49
2022-11-07T11:28:12.966Z,14.52
2022-11-07T11:29:12.662Z,14.49
2022-11-07T11:30:12.654Z,14.52
2022-11-07T11:31:12.646Z,14.56
2022-11-07T11:32:12.631Z,14.54
2022-11-07T11:33:12.771Z,14.52
2022-11-07T11:34:12.606Z,14.45
2022-11-07T11:35:12.596Z,14.41
2022-11-07T11:36:12.595Z,14.38
2022-11-07T11:37:12.571Z,14.30
2022-11-07T11:38:12.566Z,14.21
2022-11-07T11:39:12.550Z,14.16
2022-11-07T11:40:12.539Z,14.09
2022-11-07T11:41:12.532Z,14.02
2022-11-07T11:42:12.517Z,13.94
2022-11-07T11:43:12.572Z,13.90
2022-11-07T11:44:12.498Z,13.83
2022-11-07T11:45:12.483Z,13.79
2022-11-07T11:46:12.487Z,13.75
2022-11-07T11:47:12.459Z,13.76
2022-11-07T11:48:12.465Z,13.76
2022-11-07T11:49:12.439Z,13.72
2022-11-07T11:50:12.428Z,13.69
2022-11-07T11:51:12.423Z,13.68
2022-11-07T11:52:12.410Z,13.66
2022-11-07T11:53:12.394Z,13.62
2022-11-07T11:54:12.386Z,13.55
2022-11-07T11:55:12.371Z,13.51
2022-11-07T11:56:12.381Z,13.47
2022-11-07T11:57:12.376Z,13.47
2022-11-07T11:58:12.344Z,13.46
2022-11-07T11:59:12.328Z,13.43
2022-11-07T12:00:12.327Z,13.39
2022-11-07T12:01:12.343Z,13.36
2022-11-07T12:02:12.402Z,13.28
2022-11-07T12:03:12.292Z,13.31
2022-11-07T12:04:12.276Z,13.35
2022-11-07T12:05:12.264Z,13.38
2022-11-07T12:06:12.304Z,13.39
2022-11-07T12:07:12.237Z,13.39
2022-11-07T12:08:12.234Z,13.38
2022-11-07T12:09:17.104Z,13.39
2022-11-07T12:10:12.215Z,13.39
2022-11-07T12:11:12.194Z,13.41
2022-11-07T12:12:12.221Z,13.46
2022-11-07T12:13:12.174Z,13.46
2022-11-07T12:14:12.169Z,13.47
2022-11-07T12:15:12.159Z,13.53
2022-11-07T12:16:12.187Z,13.55
2022-11-07T12:17:12.154Z,13.59
2022-11-07T12:18:12.121Z,13.61
2022-11-07T12:19:12.113Z,13.65
2022-11-07T12:20:12.096Z,13.69
2022-11-07T12:21:12.088Z,13.71
2022-11-07T12:22:12.081Z,13.76
2022-11-07T12:23:12.070Z,13.83
2022-11-07T12:24:12.068Z,13.84
2022-11-07T12:25:12.044Z,13.84
2022-11-07T12:26:12.032Z,13.88
2022-11-07T12:27:12.031Z,13.93
2022-11-07T12:28:12.009Z,13.98
2022-11-07T12:29:12.002Z,13.99
2022-11-07T12:30:11.986Z,14.01
2022-11-07T12:31:11.979Z,14.02
2022-11-07T12:32:11.973Z,14.05
2022-11-07T12:33:11.972Z,14.11
2022-11-07T12:34:11.943Z,14.12
2022-11-07T12:35:11.937Z,14.12
2022-11-07T12:36:11.921Z,14.12
2022-11-07T12:37:11.929Z,14.17
2022-11-07T12:38:11.901Z,14.13
2022-11-07T12:39:11.893Z,14.08
2022-11-07T12:40:11.961Z,14.08
2022-11-07T12:41:11.868Z,14.05
2022-11-07T12:42:11.864Z,14.04
2022-11-07T12:43:11.852Z,14.01
2022-11-07T12:44:11.832Z,13.98
2022-11-07T12:45:11.827Z,13.98
2022-11-07T12:46:11.809Z,13.98
2022-11-07T12:47:11.812Z,13.93
2022-11-07T12:48:13.444Z,13.93
2022-11-07T12:49:11.779Z,13.91
2022-11-07T12:50:11.791Z,13.91
2022-11-07T12:51:11.768Z,13.90
2022-11-07T12:52:11.755Z,13.88
2022-11-07T12:53:11.735Z,13.91
2022-11-07T12:54:16.347Z,13.94